createdAt,value
2018-07-06T00:00:18.843Z,0.00
2018-07-06T00:01:18.759Z,0.00
2018-07-06T00:02:18.695Z,0.00
2018-07-06T00:03:18.618Z,0.00
2018-07-06T00:04:18.547Z,0.00
2018-07-06T00:05:18.471Z,0.00
2018-07-06T00:06:18.406Z,0.00
2018-07-06T00:07:18.331Z,0.00
2018-07-06T00:08:18.260Z,0.00
2018-07-06T00:09:18.188Z,0.00
2018-07-06T00:10:18.119Z,0.00
2018-07-06T00:11:18.039Z,0.00
2018-07-06T00:12:17.989Z,0.00
2018-07-06T00:13:17.890Z,0.00
2018-07-06T00:14:17.842Z,0.00
2018-07-06T00:15:17.753Z,0.00
2018-07-06T00:16:17.687Z,0.00
2018-07-06T00:17:17.605Z,0.00
2018-07-06T00:18:17.548Z,0.00
2018-07-06T00:19:17.465Z,0.00
2018-07-06T00:20:17.404Z,0.00
2018-07-06T00:21:17.320Z,0.00
2018-07-06T00:22:17.257Z,0.00
2018-07-06T00:23:17.182Z,0.00
2018-07-06T00:24:17.112Z,0.00
2018-07-06T00:25:17.031Z,0.00
2018-07-06T00:26:16.978Z,0.00
2018-07-06T00:27:16.889Z,0.00
2018-07-06T00:28:16.824Z,0.00
2018-07-06T00:29:16.749Z,0.00
2018-07-06T00:30:16.681Z,0.00
2018-07-06T00:31:16.601Z,0.00
2018-07-06T00:32:16.537Z,0.00
2018-07-06T00:33:16.459Z,0.00
2018-07-06T00:34:16.391Z,0.00
2018-07-06T00:35:16.312Z,0.00
2018-07-06T00:36:16.255Z,0.00
2018-07-06T00:37:16.170Z,0.00
2018-07-06T00:38:16.101Z,0.00
2018-07-06T00:39:16.023Z,0.00
2018-07-06T00:40:15.962Z,0.00
2018-07-06T00:41:15.882Z,0.00
2018-07-06T00:42:15.820Z,0.00
2018-07-06T00:43:15.733Z,0.00
2018-07-06T00:44:15.674Z,0.00
2018-07-06T00:45:15.591Z,0.00
2018-07-06T00:46:15.527Z,0.00
2018-07-06T00:47:15.449Z,0.00
2018-07-06T00:48:15.388Z,0.00
2018-07-06T00:49:15.305Z,0.00
2018-07-06T00:50:15.241Z,0.00
2018-07-06T00:51:15.161Z,0.00
2018-07-06T00:52:15.123Z,0.00
2018-07-06T00:53:15.019Z,0.00
2018-07-06T00:54:14.954Z,0.00
2018-07-06T00:55:14.877Z,0.00
2018-07-06T00:56:14.811Z,0.00
2018-07-06T00:57:14.735Z,0.00
2018-07-06T00:58:14.665Z,0.00
2018-07-06T00:59:14.585Z,0.00
2018-07-06T01:00:14.524Z,0.00
2018-07-06T01:01:14.445Z,0.00
2018-07-06T01:02:14.380Z,0.00
2018-07-06T01:03:14.302Z,0.00
2018-07-06T01:04:14.228Z,0.00
2018-07-06T01:05:14.154Z,0.00
2018-07-06T01:06:14.085Z,0.00
2018-07-06T01:07:14.008Z,0.00
2018-07-06T01:08:13.948Z,0.00
2018-07-06T01:09:13.864Z,0.00
2018-07-06T01:10:13.866Z,0.00
2018-07-06T01:11:13.723Z,0.00
2018-07-06T01:12:13.655Z,0.00
2018-07-06T01:13:13.578Z,0.00
2018-07-06T01:14:13.514Z,0.00
2018-07-06T01:15:13.432Z,0.00
2018-07-06T01:16:13.367Z,0.00
2018-07-06T01:17:13.285Z,0.00
2018-07-06T01:18:13.227Z,0.00
2018-07-06T01:19:13.146Z,0.00
2018-07-06T01:20:13.079Z,0.00
2018-07-06T01:21:12.998Z,0.00
2018-07-06T01:22:12.935Z,0.00
2018-07-06T01:23:12.856Z,0.00
2018-07-06T01:24:12.793Z,0.00
2018-07-06T01:25:12.716Z,0.00
2018-07-06T01:26:12.644Z,0.00
2018-07-06T01:27:12.566Z,0.00
2018-07-06T01:28:12.501Z,0.00
2018-07-06T01:29:12.426Z,0.00
2018-07-06T01:30:12.359Z,0.00
2018-07-06T01:31:12.292Z,0.00
2018-07-06T01:32:12.216Z,0.00
2018-07-06T01:33:12.135Z,0.00
2018-07-06T01:34:12.073Z,0.00
2018-07-06T01:35:11.989Z,0.00
2018-07-06T01:36:11.927Z,0.00
2018-07-06T01:37:11.844Z,0.00
2018-07-06T01:38:11.779Z,0.00
2018-07-06T01:39:11.699Z,0.00
2018-07-06T01:40:11.635Z,0.00
2018-07-06T01:41:11.556Z,0.00
2018-07-06T01:42:11.491Z,0.00
2018-07-06T01:43:11.411Z,0.00
2018-07-06T01:44:11.346Z,0.00
2018-07-06T01:45:11.269Z,0.00
2018-07-06T01:46:11.202Z,0.00
2018-07-06T01:47:11.126Z,0.00
2018-07-06T01:48:11.057Z,0.00
2018-07-06T01:49:10.978Z,0.00
2018-07-06T01:50:10.918Z,0.00
2018-07-06T01:51:10.834Z,0.00
2018-07-06T01:52:10.771Z,0.00
2018-07-06T01:53:10.690Z,0.00
2018-07-06T01:54:10.626Z,0.00
2018-07-06T01:55:10.545Z,0.00
2018-07-06T01:56:10.478Z,0.00
2018-07-06T01:57:10.403Z,0.00
2018-07-06T01:58:10.331Z,0.00
2018-07-06T01:59:10.264Z,0.00
2018-07-06T02:00:10.190Z,0.00
2018-07-06T02:01:10.121Z,0.00
2018-07-06T02:02:10.042Z,0.00
2018-07-06T02:03:09.977Z,0.00
2018-07-06T02:04:09.897Z,0.00
2018-07-06T02:05:09.829Z,0.00
2018-07-06T02:06:09.753Z,0.00
2018-07-06T02:07:09.683Z,0.00
2018-07-06T02:08:09.604Z,0.00
2018-07-06T02:09:09.540Z,0.00
2018-07-06T02:10:09.464Z,0.00
2018-07-06T02:11:09.401Z,0.00
2018-07-06T02:12:09.317Z,0.00
2018-07-06T02:13:09.257Z,0.00
2018-07-06T02:14:09.182Z,0.00
2018-07-06T02:15:09.114Z,0.00
2018-07-06T02:16:09.031Z,0.00
2018-07-06T02:17:08.968Z,0.00
2018-07-06T02:18:08.885Z,0.00
2018-07-06T02:19:08.824Z,0.00
2018-07-06T02:20:08.739Z,0.00
2018-07-06T02:21:08.675Z,0.00
2018-07-06T02:22:08.601Z,0.00
2018-07-06T02:23:08.531Z,0.00
2018-07-06T02:24:08.454Z,0.00
2018-07-06T02:25:08.387Z,0.00
2018-07-06T02:26:08.327Z,0.00
2018-07-06T02:27:08.239Z,0.00
2018-07-06T02:28:08.161Z,0.00
2018-07-06T02:29:08.098Z,0.00
2018-07-06T02:30:08.026Z,0.00
2018-07-06T02:31:07.953Z,0.00
2018-07-06T02:32:07.873Z,0.00
2018-07-06T02:33:07.813Z,0.00
2018-07-06T02:34:07.731Z,0.00
2018-07-06T02:35:07.659Z,0.00
2018-07-06T02:36:07.583Z,0.00
2018-07-06T02:37:07.519Z,0.00
2018-07-06T02:38:07.439Z,0.00
2018-07-06T02:39:07.368Z,0.00
2018-07-06T02:40:07.297Z,0.00
2018-07-06T02:41:07.231Z,0.00
2018-07-06T02:42:07.148Z,0.00
2018-07-06T02:43:07.100Z,0.00
2018-07-06T02:44:07.002Z,0.00
2018-07-06T02:45:06.939Z,0.00
2018-07-06T02:46:06.867Z,0.00
2018-07-06T02:47:06.788Z,0.00
2018-07-06T02:48:06.725Z,0.00
2018-07-06T02:49:06.643Z,0.00
2018-07-06T02:50:06.576Z,0.00
2018-07-06T02:51:06.497Z,0.00
2018-07-06T02:52:06.432Z,0.00
2018-07-06T02:53:06.355Z,0.00
2018-07-06T02:54:06.299Z,0.00
2018-07-06T02:55:06.289Z,0.00
2018-07-06T02:56:06.143Z,0.00
2018-07-06T02:57:06.063Z,0.00
2018-07-06T02:58:06.006Z,0.00
2018-07-06T02:59:05.917Z,0.00
2018-07-06T03:00:05.853Z,0.00
2018-07-06T03:01:05.784Z,0.00
2018-07-06T03:02:05.712Z,0.00
2018-07-06T03:03:05.629Z,0.00
2018-07-06T03:04:05.564Z,0.00
2018-07-06T03:05:05.484Z,0.00
2018-07-06T03:06:05.423Z,0.00
2018-07-06T03:07:05.339Z,0.00
2018-07-06T03:08:05.285Z,4.00
2018-07-06T03:09:05.203Z,4.00
2018-07-06T03:10:05.128Z,4.00
2018-07-06T03:11:05.049Z,0.00
2018-07-06T03:12:04.983Z,0.00
2018-07-06T03:13:04.905Z,0.00
2018-07-06T03:14:04.844Z,0.00
2018-07-06T03:15:04.761Z,0.00
2018-07-06T03:16:04.703Z,0.00
2018-07-06T03:17:04.619Z,0.00
2018-07-06T03:18:04.550Z,4.00
2018-07-06T03:19:04.470Z,4.00
2018-07-06T03:20:04.404Z,4.00
2018-07-06T03:21:04.326Z,4.00
2018-07-06T03:22:04.260Z,0.00
2018-07-06T03:23:04.181Z,4.00
2018-07-06T03:24:04.120Z,4.00
2018-07-06T03:25:04.038Z,4.00
2018-07-06T03:26:03.972Z,0.00
2018-07-06T03:27:03.892Z,4.00
2018-07-06T03:28:03.894Z,4.00
2018-07-06T03:29:03.746Z,4.00
2018-07-06T03:30:03.689Z,4.00
2018-07-06T03:31:03.610Z,4.00
2018-07-06T03:32:03.547Z,4.00
2018-07-06T03:33:03.459Z,4.00
2018-07-06T03:34:03.391Z,4.00
2018-07-06T03:35:03.312Z,8.00
2018-07-06T03:36:03.252Z,8.00
2018-07-06T03:37:03.167Z,8.00
2018-07-06T03:38:03.107Z,8.00
2018-07-06T03:39:03.028Z,8.00
2018-07-06T03:40:02.959Z,8.00
2018-07-06T03:41:02.878Z,12.00
2018-07-06T03:42:02.818Z,12.00
2018-07-06T03:43:02.735Z,12.00
2018-07-06T03:44:02.669Z,12.00
2018-07-06T03:45:02.592Z,12.00
2018-07-06T03:46:02.524Z,16.00
2018-07-06T03:47:02.453Z,16.00
2018-07-06T03:48:02.409Z,16.00
2018-07-06T03:49:02.301Z,16.00
2018-07-06T03:50:02.235Z,16.00
2018-07-06T03:51:02.154Z,20.00
2018-07-06T03:52:02.098Z,20.00
2018-07-06T03:53:02.012Z,20.00
2018-07-06T03:54:01.947Z,20.00
2018-07-06T03:55:01.974Z,20.00
2018-07-06T03:56:01.811Z,20.00
2018-07-06T03:57:01.723Z,24.00
2018-07-06T03:58:01.662Z,20.00
2018-07-06T03:59:01.577Z,24.00
2018-07-06T04:00:01.515Z,24.00
2018-07-06T04:01:01.433Z,24.00
2018-07-06T04:02:01.367Z,24.00
2018-07-06T04:03:01.297Z,20.00
2018-07-06T04:04:01.214Z,20.00
2018-07-06T04:05:01.148Z,20.00
2018-07-06T04:06:01.073Z,24.00
2018-07-06T04:07:01.004Z,20.00
2018-07-06T04:08:00.925Z,20.00
2018-07-06T04:09:00.859Z,20.00
2018-07-06T04:10:00.782Z,24.00
2018-07-06T04:11:00.720Z,24.00
2018-07-06T04:12:00.636Z,24.00
2018-07-06T04:13:00.575Z,24.00
2018-07-06T04:14:00.493Z,24.00
2018-07-06T04:15:00.421Z,24.00
2018-07-06T04:16:00.386Z,28.00
2018-07-06T04:17:00.281Z,28.00
2018-07-06T04:18:00.204Z,32.00
2018-07-06T04:19:00.136Z,40.00
2018-07-06T04:20:00.062Z,40.00
2018-07-06T04:20:59.991Z,40.00
2018-07-06T04:21:59.913Z,40.00
2018-07-06T04:22:59.844Z,44.00
2018-07-06T04:23:59.768Z,56.00
2018-07-06T04:24:59.704Z,56.00
2018-07-06T04:25:59.623Z,60.00
2018-07-06T04:26:59.563Z,60.00
2018-07-06T04:27:59.481Z,72.00
2018-07-06T04:28:59.413Z,80.00
2018-07-06T04:29:59.335Z,80.00
2018-07-06T04:30:59.269Z,80.00
2018-07-06T04:31:59.189Z,84.00
2018-07-06T04:32:59.130Z,80.00
2018-07-06T04:33:59.048Z,92.00
2018-07-06T04:34:58.980Z,92.00
2018-07-06T04:35:58.901Z,84.00
2018-07-06T04:36:58.835Z,84.00
2018-07-06T04:37:58.756Z,80.00
2018-07-06T04:38:58.690Z,72.00
2018-07-06T04:39:58.610Z,72.00
2018-07-06T04:40:58.547Z,68.00
2018-07-06T04:41:58.465Z,64.00
2018-07-06T04:42:58.397Z,64.00
2018-07-06T04:43:58.329Z,60.00
2018-07-06T04:44:58.260Z,56.00
2018-07-06T04:45:58.177Z,52.00
2018-07-06T04:46:58.112Z,56.00
2018-07-06T04:47:58.033Z,56.00
2018-07-06T04:48:57.968Z,52.00
2018-07-06T04:49:57.888Z,52.00
2018-07-06T04:50:57.845Z,52.00
2018-07-06T04:51:57.742Z,52.00
2018-07-06T04:52:57.677Z,56.00
2018-07-06T04:53:57.598Z,52.00
2018-07-06T04:54:57.534Z,48.00
2018-07-06T04:55:57.454Z,48.00
2018-07-06T04:56:57.389Z,48.00
2018-07-06T04:57:57.309Z,52.00
2018-07-06T04:58:57.243Z,52.00
2018-07-06T04:59:57.200Z,52.00
2018-07-06T05:00:57.099Z,56.00
2018-07-06T05:01:57.028Z,64.00
2018-07-06T05:02:56.951Z,68.00
2018-07-06T05:03:56.877Z,76.00
2018-07-06T05:04:56.813Z,76.00
2018-07-06T05:05:56.735Z,76.00
2018-07-06T05:06:56.663Z,80.00
2018-07-06T05:07:56.585Z,76.00
2018-07-06T05:08:56.519Z,72.00
2018-07-06T05:09:56.445Z,72.00
2018-07-06T05:10:56.373Z,64.00
2018-07-06T05:11:56.294Z,52.00
2018-07-06T05:12:56.228Z,48.00
2018-07-06T05:13:56.152Z,52.00
2018-07-06T05:14:56.084Z,56.00
2018-07-06T05:15:56.004Z,60.00
2018-07-06T05:16:55.954Z,60.00
2018-07-06T05:17:55.905Z,64.00
2018-07-06T05:18:55.896Z,60.00
2018-07-06T05:19:55.716Z,60.00
2018-07-06T05:20:55.708Z,56.00
2018-07-06T05:21:55.570Z,56.00
2018-07-06T05:22:55.516Z,56.00
2018-07-06T05:23:55.426Z,56.00
2018-07-06T05:24:55.425Z,56.00
2018-07-06T05:25:55.289Z,48.00
2018-07-06T05:26:55.236Z,48.00
2018-07-06T05:27:55.139Z,40.00
2018-07-06T05:28:55.145Z,40.00
2018-07-06T05:29:54.987Z,44.00
2018-07-06T05:30:54.924Z,44.00
2018-07-06T05:31:54.962Z,44.00
2018-07-06T05:32:54.775Z,48.00
2018-07-06T05:33:54.771Z,48.00
2018-07-06T05:34:54.630Z,52.00
2018-07-06T05:35:54.579Z,52.00
2018-07-06T05:36:54.481Z,52.00
2018-07-06T05:37:54.586Z,52.00
2018-07-06T05:38:54.335Z,60.00
2018-07-06T05:39:54.298Z,60.00
2018-07-06T05:40:54.193Z,64.00
2018-07-06T05:41:54.210Z,60.00
2018-07-06T05:42:54.051Z,56.00
2018-07-06T05:43:54.016Z,64.00
2018-07-06T05:44:53.906Z,68.00
2018-07-06T05:45:53.928Z,76.00
2018-07-06T05:46:53.756Z,80.00
2018-07-06T05:47:53.743Z,80.00
2018-07-06T05:48:53.613Z,88.00
2018-07-06T05:49:53.646Z,88.00
2018-07-06T05:50:53.465Z,80.00
2018-07-06T05:51:53.458Z,76.00
2018-07-06T05:52:53.320Z,76.00
2018-07-06T05:53:53.319Z,76.00
2018-07-06T05:54:53.175Z,92.00
2018-07-06T05:55:53.175Z,92.00
2018-07-06T05:56:53.029Z,92.00
2018-07-06T05:57:52.984Z,88.00
2018-07-06T05:58:52.886Z,76.00
2018-07-06T05:59:52.896Z,80.00
2018-07-06T06:00:52.739Z,88.00
2018-07-06T06:01:52.706Z,96.00
2018-07-06T06:02:52.604Z,104.00
2018-07-06T06:03:52.614Z,112.00
2018-07-06T06:04:52.445Z,120.00
2018-07-06T06:05:52.425Z,124.00
2018-07-06T06:06:52.303Z,132.00
2018-07-06T06:07:52.239Z,132.00
2018-07-06T06:08:52.239Z,136.00
2018-07-06T06:09:52.087Z,136.00
2018-07-06T06:10:52.057Z,128.00
2018-07-06T06:11:51.949Z,128.00
2018-07-06T06:12:51.962Z,124.00
2018-07-06T06:13:51.793Z,128.00
2018-07-06T06:14:51.784Z,132.00
2018-07-06T06:15:51.650Z,124.00
2018-07-06T06:16:51.678Z,112.00
2018-07-06T06:17:51.512Z,92.00
2018-07-06T06:18:51.654Z,92.00
2018-07-06T06:19:51.359Z,96.00
2018-07-06T06:20:51.301Z,88.00
2018-07-06T06:21:51.303Z,84.00
2018-07-06T06:22:51.145Z,88.00
2018-07-06T06:23:51.110Z,88.00
2018-07-06T06:24:51.023Z,92.00
2018-07-06T06:25:51.023Z,96.00
2018-07-06T06:26:50.848Z,104.00
2018-07-06T06:27:50.831Z,100.00
2018-07-06T06:28:50.705Z,100.00
2018-07-06T06:29:50.748Z,92.00
2018-07-06T06:30:50.562Z,88.00
2018-07-06T06:31:50.549Z,100.00
2018-07-06T06:32:50.415Z,116.00
2018-07-06T06:33:50.444Z,120.00
2018-07-06T06:34:50.267Z,112.00
2018-07-06T06:35:50.267Z,124.00
2018-07-06T06:36:50.123Z,140.00
2018-07-06T06:37:50.079Z,144.00
2018-07-06T06:38:49.976Z,144.00
2018-07-06T06:39:49.990Z,136.00
2018-07-06T06:40:49.835Z,136.00
2018-07-06T06:41:49.796Z,144.00
2018-07-06T06:42:49.690Z,156.00
2018-07-06T06:43:49.708Z,160.00
2018-07-06T06:44:49.549Z,148.00
2018-07-06T06:45:49.520Z,152.00
2018-07-06T06:46:49.391Z,164.00
2018-07-06T06:47:49.430Z,156.00
2018-07-06T06:48:49.250Z,152.00
2018-07-06T06:49:49.238Z,164.00
2018-07-06T06:50:49.141Z,188.00
2018-07-06T06:51:49.148Z,200.00
2018-07-06T06:52:48.965Z,168.00
2018-07-06T06:53:48.961Z,140.00
2018-07-06T06:54:48.819Z,124.00
2018-07-06T06:55:48.766Z,112.00
2018-07-06T06:56:48.668Z,104.00
2018-07-06T06:57:48.677Z,92.00
2018-07-06T06:58:48.526Z,92.00
2018-07-06T06:59:48.485Z,88.00
2018-07-06T07:00:48.377Z,84.00
2018-07-06T07:01:48.397Z,88.00
2018-07-06T07:02:48.237Z,76.00
2018-07-06T07:03:48.205Z,72.00
2018-07-06T07:04:48.099Z,84.00
2018-07-06T07:05:48.117Z,100.00
2018-07-06T07:06:47.948Z,120.00
2018-07-06T07:07:47.908Z,112.00
2018-07-06T07:08:47.830Z,112.00
2018-07-06T07:09:47.725Z,120.00
2018-07-06T07:10:47.739Z,120.00
2018-07-06T07:11:47.584Z,120.00
2018-07-06T07:12:47.549Z,120.00
2018-07-06T07:13:47.471Z,132.00
2018-07-06T07:14:47.459Z,128.00
2018-07-06T07:15:47.296Z,128.00
2018-07-06T07:16:47.271Z,116.00
2018-07-06T07:17:47.150Z,104.00
2018-07-06T07:18:47.180Z,116.00
2018-07-06T07:19:47.001Z,120.00
2018-07-06T07:20:46.986Z,112.00
2018-07-06T07:21:46.850Z,108.00
2018-07-06T07:22:46.798Z,104.00
2018-07-06T07:23:46.767Z,116.00
2018-07-06T07:24:46.708Z,132.00
2018-07-06T07:25:46.559Z,136.00
2018-07-06T07:26:46.517Z,140.00
2018-07-06T07:27:46.416Z,144.00
2018-07-06T07:28:46.427Z,152.00
2018-07-06T07:29:46.268Z,176.00
2018-07-06T07:30:46.239Z,172.00
2018-07-06T07:31:46.121Z,184.00
2018-07-06T07:32:46.049Z,188.00
2018-07-06T07:33:46.153Z,196.00
2018-07-06T07:34:45.901Z,176.00
2018-07-06T07:35:48.015Z,188.00
2018-07-06T07:36:45.766Z,196.00
2018-07-06T07:37:47.821Z,196.00
2018-07-06T07:38:45.610Z,212.00
2018-07-06T07:39:46.707Z,224.00
2018-07-06T07:40:45.464Z,244.00
2018-07-06T07:41:50.407Z,276.00
2018-07-06T07:42:45.320Z,280.00
2018-07-06T07:43:45.259Z,280.00
2018-07-06T07:44:45.178Z,264.00
2018-07-06T07:45:45.127Z,248.00
2018-07-06T07:46:45.031Z,252.00
2018-07-06T07:47:45.123Z,260.00
2018-07-06T07:48:44.888Z,244.00
2018-07-06T07:49:44.810Z,236.00
2018-07-06T07:50:44.739Z,244.00
2018-07-06T07:51:44.844Z,260.00
2018-07-06T07:52:44.603Z,300.00
2018-07-06T07:53:44.653Z,332.00
2018-07-06T07:54:44.447Z,336.00
2018-07-06T07:55:44.564Z,364.00
2018-07-06T07:56:44.305Z,376.00
2018-07-06T07:57:44.378Z,372.00
2018-07-06T07:58:44.158Z,376.00
2018-07-06T07:59:44.284Z,360.00
2018-07-06T08:00:44.219Z,356.00
2018-07-06T08:01:44.094Z,356.00
2018-07-06T08:02:43.870Z,376.00
2018-07-06T08:03:44.007Z,392.00
2018-07-06T08:04:43.722Z,404.00
2018-07-06T08:05:43.816Z,400.00
2018-07-06T08:06:43.574Z,396.00
2018-07-06T08:07:43.728Z,376.00
2018-07-06T08:08:43.441Z,364.00
2018-07-06T08:09:43.537Z,388.00
2018-07-06T08:10:43.296Z,408.00
2018-07-06T08:11:43.378Z,412.00
2018-07-06T08:12:43.143Z,376.00
2018-07-06T08:13:43.080Z,328.00
2018-07-06T08:14:43.161Z,308.00
2018-07-06T08:15:42.919Z,280.00
2018-07-06T08:16:42.861Z,264.00
2018-07-06T08:17:42.976Z,240.00
2018-07-06T08:18:42.713Z,244.00
2018-07-06T08:19:42.790Z,284.00
2018-07-06T08:20:42.555Z,292.00
2018-07-06T08:21:42.700Z,284.00
2018-07-06T08:22:42.422Z,280.00
2018-07-06T08:23:42.505Z,304.00
2018-07-06T08:24:42.269Z,360.00
2018-07-06T08:25:42.200Z,408.00
2018-07-06T08:26:42.126Z,388.00
2018-07-06T08:27:42.056Z,384.00
2018-07-06T08:28:42.132Z,396.00
2018-07-06T08:29:41.910Z,384.00
2018-07-06T08:30:41.938Z,348.00
2018-07-06T08:31:41.839Z,344.00
2018-07-06T08:32:41.760Z,360.00
2018-07-06T08:33:41.638Z,392.00
2018-07-06T08:34:41.663Z,444.00
2018-07-06T08:35:41.475Z,472.00
2018-07-06T08:36:41.471Z,440.00
2018-07-06T08:37:41.331Z,396.00
2018-07-06T08:38:41.380Z,380.00
2018-07-06T08:39:41.262Z,396.00
2018-07-06T08:40:41.189Z,440.00
2018-07-06T08:41:41.043Z,484.00
2018-07-06T08:42:41.002Z,500.00
2018-07-06T08:43:40.896Z,504.00
2018-07-06T08:44:40.894Z,488.00
2018-07-06T08:45:40.753Z,464.00
2018-07-06T08:46:40.719Z,436.00
2018-07-06T08:47:40.603Z,404.00
2018-07-06T08:48:40.541Z,368.00
2018-07-06T08:49:40.535Z,376.00
2018-07-06T08:50:40.390Z,400.00
2018-07-06T08:51:40.446Z,432.00
2018-07-06T08:52:40.245Z,436.00
2018-07-06T08:53:40.257Z,428.00
2018-07-06T08:54:40.104Z,424.00
2018-07-06T08:55:40.065Z,440.00
2018-07-06T08:56:39.957Z,464.00
2018-07-06T08:57:39.976Z,492.00
2018-07-06T08:58:39.861Z,516.00
2018-07-06T08:59:39.787Z,528.00
2018-07-06T09:00:39.668Z,524.00
2018-07-06T09:01:39.695Z,524.00
2018-07-06T09:02:39.523Z,532.00
2018-07-06T09:03:39.454Z,528.00
2018-07-06T09:04:39.558Z,504.00
2018-07-06T09:05:39.311Z,488.00
2018-07-06T09:06:39.325Z,464.00
2018-07-06T09:07:39.236Z,436.00
2018-07-06T09:08:39.132Z,456.00
2018-07-06T09:09:39.020Z,472.00
2018-07-06T09:10:38.947Z,456.00
2018-07-06T09:11:38.875Z,424.00
2018-07-06T09:12:38.852Z,428.00
2018-07-06T09:13:38.732Z,472.00
2018-07-06T09:14:38.665Z,536.00
2018-07-06T09:15:38.667Z,580.00
2018-07-06T09:16:38.514Z,592.00
2018-07-06T09:17:38.579Z,584.00
2018-07-06T09:18:38.372Z,564.00
2018-07-06T09:19:38.402Z,548.00
2018-07-06T09:20:38.293Z,532.00
2018-07-06T09:21:38.155Z,528.00
2018-07-06T09:22:38.203Z,524.00
2018-07-06T09:23:38.012Z,520.00
2018-07-06T09:24:38.014Z,532.00
2018-07-06T09:25:38.005Z,536.00
2018-07-06T09:26:37.924Z,512.00
2018-07-06T09:27:37.727Z,480.00
2018-07-06T09:28:37.736Z,472.00
2018-07-06T09:29:37.582Z,488.00
2018-07-06T09:30:37.511Z,512.00
2018-07-06T09:31:37.549Z,520.00
2018-07-06T09:32:37.371Z,548.00
2018-07-06T09:33:37.358Z,604.00
2018-07-06T09:34:37.219Z,648.00
2018-07-06T09:35:37.271Z,656.00
2018-07-06T09:36:37.080Z,680.00
2018-07-06T09:37:37.080Z,704.00
2018-07-06T09:38:36.933Z,704.00
2018-07-06T09:39:36.863Z,732.00
2018-07-06T09:40:36.791Z,740.00
2018-07-06T09:41:36.798Z,732.00
2018-07-06T09:42:36.649Z,724.00
2018-07-06T09:43:36.608Z,720.00
2018-07-06T09:44:36.506Z,712.00
2018-07-06T09:45:36.520Z,708.00
2018-07-06T09:46:36.360Z,700.00
2018-07-06T09:47:36.409Z,688.00
2018-07-06T09:48:36.223Z,680.00
2018-07-06T09:49:36.240Z,672.00
2018-07-06T09:50:36.079Z,676.00
2018-07-06T09:51:36.049Z,708.00
2018-07-06T09:52:35.934Z,752.00
2018-07-06T09:53:35.961Z,732.00
2018-07-06T09:54:35.788Z,700.00
2018-07-06T09:55:35.770Z,720.00
2018-07-06T09:56:35.645Z,752.00
2018-07-06T09:57:35.681Z,764.00
2018-07-06T09:58:35.503Z,772.00
2018-07-06T09:59:35.490Z,788.00
2018-07-06T10:00:35.373Z,792.00
2018-07-06T10:01:35.401Z,796.00
2018-07-06T10:02:35.215Z,800.00
2018-07-06T10:03:35.208Z,800.00
2018-07-06T10:04:35.076Z,780.00
2018-07-06T10:05:35.137Z,784.00
2018-07-06T10:06:34.927Z,792.00
2018-07-06T10:07:34.932Z,784.00
2018-07-06T10:08:34.790Z,784.00
2018-07-06T10:09:34.725Z,780.00
2018-07-06T10:10:34.748Z,800.00
2018-07-06T10:11:34.575Z,800.00
2018-07-06T10:12:34.584Z,784.00
2018-07-06T10:13:34.428Z,740.00
2018-07-06T10:14:34.467Z,672.00
2018-07-06T10:15:34.286Z,620.00
2018-07-06T10:16:34.278Z,588.00
2018-07-06T10:17:34.146Z,572.00
2018-07-06T10:18:34.189Z,568.00
2018-07-06T10:19:34.083Z,548.00
2018-07-06T10:20:33.997Z,540.00
2018-07-06T10:21:33.862Z,556.00
2018-07-06T10:22:33.919Z,560.00
2018-07-06T10:23:33.721Z,572.00
2018-07-06T10:24:33.719Z,560.00
2018-07-06T10:25:33.580Z,504.00
2018-07-06T10:26:33.628Z,448.00
2018-07-06T10:27:33.431Z,448.00
2018-07-06T10:28:33.440Z,520.00
2018-07-06T10:29:33.292Z,588.00
2018-07-06T10:30:33.350Z,640.00
2018-07-06T10:31:33.147Z,620.00
2018-07-06T10:32:33.157Z,568.00
2018-07-06T10:33:33.085Z,568.00
2018-07-06T10:34:33.070Z,640.00
2018-07-06T10:35:32.870Z,696.00
2018-07-06T10:36:32.879Z,700.00
2018-07-06T10:37:32.720Z,696.00
2018-07-06T10:38:32.646Z,716.00
2018-07-06T10:39:32.719Z,756.00
2018-07-06T10:40:32.514Z,808.00
2018-07-06T10:41:32.444Z,888.00
2018-07-06T10:42:32.512Z,952.00
2018-07-06T10:43:32.299Z,960.00
2018-07-06T10:44:32.241Z,900.00
2018-07-06T10:45:32.224Z,808.00
2018-07-06T10:46:32.089Z,740.00
2018-07-06T10:47:32.137Z,760.00
2018-07-06T10:48:31.943Z,812.00
2018-07-06T10:49:31.947Z,780.00
2018-07-06T10:50:31.795Z,764.00
2018-07-06T10:51:31.857Z,812.00
2018-07-06T10:52:31.653Z,896.00
2018-07-06T10:53:31.669Z,960.00
2018-07-06T10:54:31.511Z,932.00
2018-07-06T10:55:31.581Z,860.00
2018-07-06T10:56:31.372Z,816.00
2018-07-06T10:57:31.306Z,860.00
2018-07-06T10:58:31.295Z,1048.00
2018-07-06T10:59:31.164Z,1216.00
2018-07-06T11:00:31.095Z,1284.00
2018-07-06T11:01:31.017Z,1228.00
2018-07-06T11:02:31.013Z,1148.00
2018-07-06T11:03:30.875Z,1056.00
2018-07-06T11:04:30.926Z,960.00
2018-07-06T11:05:30.743Z,904.00
2018-07-06T11:06:30.663Z,768.00
2018-07-06T11:07:30.592Z,728.00
2018-07-06T11:08:30.521Z,776.00
2018-07-06T11:09:30.454Z,832.00
2018-07-06T11:10:30.457Z,864.00
2018-07-06T11:11:30.361Z,908.00
2018-07-06T11:12:30.362Z,980.00
2018-07-06T11:13:30.168Z,944.00
2018-07-06T11:14:30.180Z,848.00
2018-07-06T11:15:30.027Z,840.00
2018-07-06T11:16:30.086Z,804.00
2018-07-06T11:17:29.887Z,772.00
2018-07-06T11:18:29.898Z,776.00
2018-07-06T11:19:29.749Z,768.00
2018-07-06T11:20:29.807Z,724.00
2018-07-06T11:21:29.606Z,744.00
2018-07-06T11:22:29.645Z,792.00
2018-07-06T11:23:29.462Z,860.00
2018-07-06T11:24:29.423Z,812.00
2018-07-06T11:25:29.388Z,788.00
2018-07-06T11:26:29.335Z,776.00
2018-07-06T11:27:29.222Z,824.00
2018-07-06T11:28:29.249Z,928.00
2018-07-06T11:29:29.046Z,1064.00
2018-07-06T11:30:29.058Z,1192.00
2018-07-06T11:31:28.902Z,1272.00
2018-07-06T11:32:28.971Z,1336.00
2018-07-06T11:33:28.763Z,1388.00
2018-07-06T11:34:28.781Z,1644.00
2018-07-06T11:35:28.621Z,1620.00
2018-07-06T11:36:28.690Z,1644.00
2018-07-06T11:37:28.483Z,1592.00
2018-07-06T11:38:28.500Z,1968.00
2018-07-06T11:39:28.342Z,2008.00
2018-07-06T11:40:28.410Z,1584.00
2018-07-06T11:41:28.204Z,1644.00
2018-07-06T11:42:28.220Z,1452.00
2018-07-06T11:43:28.071Z,1344.00
2018-07-06T11:44:27.993Z,1500.00
2018-07-06T11:45:28.033Z,2168.00
2018-07-06T11:46:27.851Z,1320.00
2018-07-06T11:47:27.949Z,1204.00
2018-07-06T11:48:27.714Z,1164.00
2018-07-06T11:49:27.757Z,1104.00
2018-07-06T11:50:27.596Z,1136.00
2018-07-06T11:51:27.504Z,1168.00
2018-07-06T11:52:27.569Z,1180.00
2018-07-06T11:53:27.366Z,1208.00
2018-07-06T11:54:27.387Z,1268.00
2018-07-06T11:55:27.228Z,1332.00
2018-07-06T11:56:27.295Z,1544.00
2018-07-06T11:57:27.093Z,1596.00
2018-07-06T11:58:27.098Z,1512.00
2018-07-06T11:59:26.950Z,1484.00
2018-07-06T12:00:27.012Z,1504.00
2018-07-06T12:01:26.825Z,1588.00
2018-07-06T12:02:26.820Z,1672.00
2018-07-06T12:03:26.672Z,1708.00
2018-07-06T12:04:26.777Z,1772.00
2018-07-06T12:05:26.535Z,1788.00
2018-07-06T12:06:26.538Z,1576.00
2018-07-06T12:07:26.395Z,1492.00
2018-07-06T12:08:26.347Z,1464.00
2018-07-06T12:09:26.263Z,1284.00
2018-07-06T12:10:26.200Z,1500.00
2018-07-06T12:11:26.266Z,1112.00
2018-07-06T12:12:26.051Z,1080.00
2018-07-06T12:13:26.075Z,1192.00
2018-07-06T12:14:25.915Z,1840.00
2018-07-06T12:15:25.888Z,1096.00
2018-07-06T12:16:25.773Z,1036.00
2018-07-06T12:17:25.797Z,1048.00
2018-07-06T12:18:25.637Z,1100.00
2018-07-06T12:19:25.708Z,1652.00
2018-07-06T12:20:25.499Z,1608.00
2018-07-06T12:21:25.569Z,1492.00
2018-07-06T12:22:25.360Z,1296.00
2018-07-06T12:23:25.427Z,2024.00
2018-07-06T12:24:25.226Z,1980.00
2018-07-06T12:25:25.242Z,1784.00
2018-07-06T12:26:25.087Z,1720.00
2018-07-06T12:27:25.150Z,1624.00
2018-07-06T12:28:24.952Z,1704.00
2018-07-06T12:29:25.063Z,1964.00
2018-07-06T12:30:24.811Z,2100.00
2018-07-06T12:31:24.873Z,2324.00
2018-07-06T12:32:24.676Z,2224.00
2018-07-06T12:33:24.782Z,2276.00
2018-07-06T12:34:24.542Z,2352.00
2018-07-06T12:35:24.590Z,2368.00
2018-07-06T12:36:24.405Z,2496.00
2018-07-06T12:37:24.337Z,2424.00
2018-07-06T12:38:24.265Z,2220.00
2018-07-06T12:39:24.198Z,2436.00
2018-07-06T12:40:24.133Z,2324.00
2018-07-06T12:41:24.075Z,2288.00
2018-07-06T12:42:24.128Z,2088.00
2018-07-06T12:43:23.926Z,2428.00